Time;durP1;ratioP1;P1;durP2;ratioP2;P2;SDS_P1;SDS_P2;PMS_P1;PMS_P2;Temp;Humidity;BMP_temperature;BMP_pressure;BME280_temperature;BME280_humidity;BME280_pressure;Samples;Min_cycle;Max_cycle;Signal;HPM_P1;HPM_P2
2023/11/09 00:02:17;;;;;;;;;;;;;;;3.21;100.00;96046.66;5127771;28;19937;-73
2023/11/09 00:04:42;;;;;;;;;;;;;;;3.20;100.00;96039.84;5127786;28;19982;-74
2023/11/09 00:07:09;;;;;;;;;;;;;;;3.19;100.00;96040.03;5127643;28;19961;-72
2023/11/09 00:09:35;;;;;;;;;;;;;;;3.17;100.00;96037.63;5127686;28;19936;-70
2023/11/09 00:12:00;;;;;;;;;;;;;;;3.17;100.00;96031.63;5127606;28;19937;-71
2023/11/09 00:14:26;;;;;;;;;;;;;;;3.15;100.00;96031.00;5127514;28;19938;-71
2023/11/09 00:16:53;;;;;;;;;;;;;;;3.12;100.00;96028.78;5127455;28;20002;-70
2023/11/09 00:19:19;;;;;;;;;;;;;;;3.11;100.00;96033.16;5128215;28;19950;-71
2023/11/09 00:21:46;;;;;;;;;;;;;;;3.09;100.00;96022.19;5127364;28;19941;-72
2023/11/09 00:24:12;;;;;;;;;;;;;;;3.09;100.00;96027.38;5126494;28;20243;-76
2023/11/09 00:26:41;;;;;;;;;;;;;;;3.09;100.00;96027.38;5126842;28;19940;-68
2023/11/09 00:29:07;;;;;;;;;;;;;;;3.09;100.00;96014.41;5127434;28;19949;-69
2023/11/09 00:31:33;;;;;;;;;;;;;;;3.09;100.00;96011.81;5126032;28;20002;-69
2023/11/09 00:33:59;;;;;;;;;;;;;;;3.10;100.00;96012.63;5127685;28;20252;-68
2023/11/09 00:36:25;;;;;;;;;;;;;;;3.11;100.00;96014.22;5127368;28;19956;-69
2023/11/09 00:38:51;;;;;;;;;;;;;;;3.11;100.00;96007.25;5127086;28;20222;-69
2023/11/09 00:41:17;;;;;;;;;;;;;;;3.12;100.00;96006.25;5126988;28;19936;-78
2023/11/09 00:43:43;;;;;;;;;;;;;;;3.13;100.00;96004.47;5126861;28;19964;-78
2023/11/09 00:46:09;;;;;;;;;;;;;;;3.14;100.00;96006.09;5126970;28;20287;-75
2023/11/09 00:48:35;;;;;;;;;;;;;;;3.13;100.00;96001.88;5126665;28;19961;-74
2023/11/09 00:51:01;;;;;;;;;;;;;;;3.14;100.00;96003.50;5127063;28;19947;-74
2023/11/09 00:53:27;;;;;;;;;;;;;;;3.12;100.00;96005.47;5126787;28;19947;-74
2023/11/09 00:55:53;;;;;;;;;;;;;;;3.09;100.00;96004.06;5126758;28;19941;-74
2023/11/09 00:58:19;;;;;;;;;;;;;;;3.09;100.00;96011.81;5126649;28;19980;-74
2023/11/09 01:00:45;;;;;;;;;;;;;;;3.07;100.00;96006.03;5126598;28;19946;-72
2023/11/09 01:03:11;;;;;;;;;;;;;;;3.03;100.00;96004.78;5127340;28;19945;-81
2023/11/09 01:05:36;;;;;;;;;;;;;;;3.00;100.00;95997.34;5125356;28;20140;-81
2023/11/09 01:08:02;;;;;;;;;;;;;;;2.97;100.00;95998.53;5125308;28;19948;-81
2023/11/09 01:10:28;;;;;;;;;;;;;;;2.95;100.00;95994.50;5126398;28;19953;-80
2023/11/09 01:12:54;;;;;;;;;;;;;;;2.95;100.00;95992.72;5126404;28;19935;-79
2023/11/09 01:15:20;;;;;;;;;;;;;;;2.94;100.00;95987.72;5126325;28;19934;-81
2023/11/09 01:18:02;;;;;;;;;;;;;;;2.95;100.00;95984.16;5125498;28;20005;-75
2023/11/09 01:20:30;;;;;;;;;;;;;;;2.95;100.00;95984.16;5126223;28;19941;-79
2023/11/09 01:22:56;;;;;;;;;;;;;;;2.94;100.00;95973.00;5126237;28;19943;-79
2023/11/09 01:25:21;;;;;;;;;;;;;;;2.92;100.00;95974.13;5124982;28;20011;-80
2023/11/09 01:27:47;;;;;;;;;;;;;;;2.89;100.00;95966.75;5126043;28;20234;-79
2023/11/09 01:30:13;;;;;;;;;;;;;;;2.87;100.00;95963.53;5126061;28;19940;-79
2023/11/09 01:32:39;;;;;;;;;;;;;;;2.85;100.00;95964.50;5126013;28;19941;-80
2023/11/09 01:35:05;;;;;;;;;;;;;;;2.84;100.00;95959.53;5126508;28;19936;-80
2023/11/09 01:37:31;;;;;;;;;;;;;;;2.84;100.00;95959.53;5125716;28;19962;-74
2023/11/09 01:39:57;;;;;;;;;;;;;;;2.84;100.00;95956.94;5124836;28;20004;-74
2023/11/09 01:42:23;;;;;;;;;;;;;;;2.84;100.00;95949.16;5107540;28;19973;-73
2023/11/09 01:44:49;;;;;;;;;;;;;;;2.82;100.00;95953.72;5124699;28;19950;-74
2023/11/09 01:47:15;;;;;;;;;;;;;;;2.82;100.00;95951.13;5125189;28;19956;-73
2023/11/09 01:49:40;;;;;;;;;;;;;;;2.82;100.00;95948.53;5125738;28;20123;-73
2023/11/09 01:52:07;;;;;;;;;;;;;;;2.82;100.00;95943.38;5125667;28;19938;-73
2023/11/09 01:54:35;;;;;;;;;;;;;;;2.84;100.00;95949.16;5125164;28;19944;-82
2023/11/09 01:57:02;;;;;;;;;;;;;;;2.85;100.00;95943.78;5125190;28;19947;-73
2023/11/09 01:59:30;;;;;;;;;;;;;;;2.87;100.00;95942.81;5125426;28;19937;-80
2023/11/09 02:01:57;;;;;;;;;;;;;;;2.91;100.00;95931.09;5125464;28;19935;-80
2023/11/09 02:04:24;;;;;;;;;;;;;;;2.92;100.00;95938.72;5125349;28;19946;-80
2023/11/09 02:06:53;;;;;;;;;;;;;;;2.96;100.00;95936.53;5125312;28;20240;-80
2023/11/09 02:09:20;;;;;;;;;;;;;;;2.96;100.00;95924.41;5125309;28;19945;-80
2023/11/09 02:11:46;;;;;;;;;;;;;;;2.97;100.00;95926.00;5125287;28;19944;-80
2023/11/09 02:14:14;;;;;;;;;;;;;;;2.96;100.00;95923.59;5125686;28;19942;-72
2023/11/09 02:16:40;;;;;;;;;;;;;;;2.96;100.00;95921.81;5125698;28;19950;-72
2023/11/09 02:19:10;;;;;;;;;;;;;;;2.97;100.00;95914.84;5125715;28;20235;-72
2023/11/09 02:21:37;;;;;;;;;;;;;;;2.95;100.00;95904.66;5125051;28;19945;-72
2023/11/09 02:24:09;;;;;;;;;;;;;;;2.96;100.00;95902.88;5125030;28;19952;-71
2023/11/09 02:26:34;;;;;;;;;;;;;;;2.94;100.00;95903.06;5125063;28;20240;-71
2023/11/09 02:29:00;;;;;;;;;;;;;;;2.92;100.00;95897.28;5123815;28;20019;-72
2023/11/09 02:31:26;;;;;;;;;;;;;;;2.91;100.00;95881.91;5125466;28;20005;-74
2023/11/09 02:33:52;;;;;;;;;;;;;;;2.87;100.00;95885.84;5123842;28;19941;-70
2023/11/09 02:36:19;;;;;;;;;;;;;;;2.88;100.00;95874.47;5124811;28;19998;-74
2023/11/09 02:38:45;;;;;;;;;;;;;;;2.86;100.00;95882.47;5124835;28;19954;-74
2023/11/09 02:41:11;;;;;;;;;;;;;;;2.86;100.00;95874.69;5125324;28;19939;-74
2023/11/09 02:43:40;;;;;;;;;;;;;;;2.87;100.00;95873.69;5124718;28;19948;-74
2023/11/09 02:46:06;;;;;;;;;;;;;;;2.89;100.00;95878.69;5125287;28;19934;-74
2023/11/09 02:48:32;;;;;;;;;;;;;;;2.90;100.00;95882.88;5123963;28;20136;-74
2023/11/09 02:50:58;;;;;;;;;;;;;;;2.90;100.00;95875.09;5125498;28;19961;-70
2023/11/09 02:53:23;;;;;;;;;;;;;;;2.91;100.00;95871.53;5124658;28;20165;-74
2023/11/09 02:55:49;;;;;;;;;;;;;;;2.92;100.00;95875.72;5124639;28;19936;-74
2023/11/09 02:58:15;;;;;;;;;;;;;;;2.91;100.00;95866.38;5124455;28;19938;-75
2023/11/09 03:00:41;;;;;;;;;;;;;;;2.90;100.00;95865.56;5124608;28;19931;-73
2023/11/09 03:03:07;;;;;;;;;;;;;;;2.90;100.00;95870.75;5124525;28;19938;-74
2023/11/09 03:05:33;;;;;;;;;;;;;;;2.90;100.00;95868.16;5124508;28;19941;-73
2023/11/09 03:07:59;;;;;;;;;;;;;;;2.91;100.00;95871.53;5124762;28;19973;-69
2023/11/09 03:10:24;;;;;;;;;;;;;;;2.88;100.00;95864.94;5124538;28;19957;-75
2023/11/09 03:12:50;;;;;;;;;;;;;;;2.85;100.00;95860.91;5124454;28;20191;-74
2023/11/09 03:15:19;;;;;;;;;;;;;;;2.83;100.00;95855.16;5124461;28;19959;-74
2023/11/09 03:17:45;;;;;;;;;;;;;;;2.84;100.00;95861.13;5124387;28;19938;-74
2023/11/09 03:20:11;;;;;;;;;;;;;;;2.82;100.00;95850.16;5124417;28;19947;-74
2023/11/09 03:22:37;;;;;;;;;;;;;;;2.79;100.00;95848.72;5124669;28;20142;-73
2023/11/09 03:25:04;;;;;;;;;;;;;;;2.77;100.00;95842.13;5124345;28;19941;-74
2023/11/09 03:27:29;;;;;;;;;;;;;;;2.73;100.00;95840.88;5124299;28;19953;-80
2023/11/09 03:29:55;;;;;;;;;;;;;;;2.71;100.00;95842.84;5123822;28;19943;-79
2023/11/09 03:32:22;;;;;;;;;;;;;;;2.66;100.00;95832.25;5124384;28;19934;-79
2023/11/09 03:34:48;;;;;;;;;;;;;;;2.62;100.00;95832.63;5124382;28;19982;-79
2023/11/09 03:37:14;;;;;;;;;;;;;;;2.61;100.00;95832.81;5124321;28;19998;-79
2023/11/09 03:39:40;;;;;;;;;;;;;;;2.60;100.00;95834.59;5124261;28;20129;-79
2023/11/09 03:42:06;;;;;;;;;;;;;;;2.59;100.00;95835.56;5124219;28;19944;-80
2023/11/09 03:44:35;;;;;;;;;;;;;;;2.60;100.00;95828.59;5124418;28;19953;-75
2023/11/09 03:47:01;;;;;;;;;;;;;;;2.60;100.00;95836.34;5124221;28;19940;-72
2023/11/09 03:49:27;;;;;;;;;;;;;;;2.59;100.00;95822.63;5123987;28;19964;-72
2023/11/09 03:51:52;;;;;;;;;;;;;;;2.60;100.00;95820.81;5124163;28;19947;-71
2023/11/09 03:54:18;;;;;;;;;;;;;;;2.59;100.00;95814.84;5124576;28;19936;-71
2023/11/09 03:56:44;;;;;;;;;;;;;;;2.61;100.00;95809.50;5124062;28;20132;-70
2023/11/09 03:59:10;;;;;;;;;;;;;;;2.62;100.00;95824.03;5124381;28;19937;-71
2023/11/09 04:01:36;;;;;;;;;;;;;;;2.62;100.00;95813.69;5128309;28;19935;-71
2023/11/09 04:04:02;;;;;;;;;;;;;;;2.62;100.00;95817.09;5127936;28;19929;-74
2023/11/09 04:06:28;;;;;;;;;;;;;;;2.60;100.00;95818.25;5127699;28;19943;-76
2023/11/09 04:08:54;;;;;;;;;;;;;;;2.54;100.00;95824.97;5127633;28;19960;-75
2023/11/09 04:11:20;;;;;;;;;;;;;;;2.54;100.00;95824.16;5127588;28;19937;-76
2023/11/09 04:13:47;;;;;;;;;;;;;;;2.54;100.00;95824.97;5127860;28;19936;-76
2023/11/09 04:16:12;;;;;;;;;;;;;;;2.53;100.00;95823.34;5127498;28;20230;-76
2023/11/09 04:18:38;;;;;;;;;;;;;;;2.53;100.00;95818.19;5127995;28;19986;-76
2023/11/09 04:21:05;;;;;;;;;;;;;;;2.53;100.00;95809.63;5127963;28;19936;-74
2023/11/09 04:23:31;;;;;;;;;;;;;;;2.51;100.00;95814.97;5127376;28;20225;-70
2023/11/09 04:25:57;;;;;;;;;;;;;;;2.52;100.00;95802.81;5127384;28;19936;-73
2023/11/09 04:28:23;;;;;;;;;;;;;;;2.56;100.00;95804.06;5127154;28;19957;-74
2023/11/09 04:30:51;;;;;;;;;;;;;;;2.64;100.00;95807.34;5127215;28;19937;-74
2023/11/09 04:33:17;;;;;;;;;;;;;;;2.70;100.00;95792.84;5127140;28;19941;-74
2023/11/09 04:35:46;;;;;;;;;;;;;;;2.75;100.00;95792.31;5126630;28;19939;-74
2023/11/09 04:38:15;;;;;;;;;;;;;;;2.78;100.00;95797.13;5127074;28;19954;-73
2023/11/09 04:40:41;;;;;;;;;;;;;;;2.78;100.00;95787.56;5127618;28;20089;-77
2023/11/09 04:43:07;;;;;;;;;;;;;;;2.79;100.00;95798.72;5126931;28;19947;-74
2023/11/09 04:45:35;;;;;;;;;;;;;;;2.80;100.00;95789.97;5127425;28;19939;-74
2023/11/09 04:48:08;;;;;;;;;;;;;;;2.78;100.00;95787.56;5125755;28;20268;-74
2023/11/09 04:50:33;;;;;;;;;;;;;;;2.78;100.00;95786.78;5126804;28;19967;-74
2023/11/09 04:53:19;;;;;;;;;;;;;;;2.76;100.00;95784.34;5127028;28;19945;-74
2023/11/09 04:55:57;;;;;;;;;;;;;;;2.73;100.00;95782.16;5126794;28;19935;-74
2023/11/09 05:06:48;;;;;;;;;;;;;;;2.79;100.00;95772.81;5126583;28;19940;-79
2023/11/09 05:09:15;;;;;;;;;;;;;;;2.82;100.00;95751.75;5127286;28;19950;-79
2023/11/09 05:11:41;;;;;;;;;;;;;;;2.87;100.00;95753.78;5126146;28;20000;-79
2023/11/09 05:14:07;;;;;;;;;;;;;;;2.89;100.00;95750.00;5126943;28;19935;-80
2023/11/09 05:16:33;;;;;;;;;;;;;;;2.92;100.00;95748.81;5126315;28;20220;-79
2023/11/09 05:18:59;;;;;;;;;;;;;;;2.93;100.00;95746.06;5126868;28;19973;-78
2023/11/09 05:21:24;;;;;;;;;;;;;;;2.95;100.00;95746.69;5126246;28;20219;-71
2023/11/09 05:23:50;;;;;;;;;;;;;;;2.97;100.00;95747.28;5126260;28;19936;-71
2023/11/09 05:26:17;;;;;;;;;;;;;;;3.00;100.00;95743.53;5126667;28;19949;-70
2023/11/09 05:28:43;;;;;;;;;;;;;;;3.01;100.00;95751.09;5126072;28;19971;-71
2023/11/09 05:31:08;;;;;;;;;;;;;;;3.03;100.00;95740.56;5126044;28;19945;-71
2023/11/09 05:33:37;;;;;;;;;;;;;;;3.04;100.00;95744.75;5124931;28;19946;-71
2023/11/09 05:36:07;;;;;;;;;;;;;;;3.07;100.00;95743.56;5125995;28;19939;-74
2023/11/09 05:38:34;;;;;;;;;;;;;;;3.07;100.00;95746.16;5125950;28;20225;-74
2023/11/09 05:41:00;;;;;;;;;;;;;;;3.08;100.00;95737.41;5125841;28;20125;-74
2023/11/09 05:43:27;;;;;;;;;;;;;;;3.07;100.00;95739.19;5125725;28;19937;-74
2023/11/09 05:45:53;;;;;;;;;;;;;;;3.06;100.00;95740.19;5125688;28;19945;-74
2023/11/09 05:48:19;;;;;;;;;;;;;;;3.04;100.00;95730.03;5126094;28;19951;-74
2023/11/09 05:50:44;;;;;;;;;;;;;;;3.07;100.00;95740.97;5125494;28;19963;-74
2023/11/09 05:53:10;;;;;;;;;;;;;;;3.05;100.00;95731.63;5125653;28;19979;-74
2023/11/09 05:55:36;;;;;;;;;;;;;;;3.06;100.00;95737.59;5125566;28;19937;-74
2023/11/09 05:58:03;;;;;;;;;;;;;;;3.04;100.00;95727.44;5126092;28;20215;-73
2023/11/09 06:00:30;;;;;;;;;;;;;;;3.02;100.00;95734.59;5125990;28;19943;-74
2023/11/09 06:02:57;;;;;;;;;;;;;;;3.02;100.00;95732.00;5124406;28;19942;-74
2023/11/09 06:05:24;;;;;;;;;;;;;;;3.02;100.00;95732.00;5124191;28;19943;-74
2023/11/09 06:07:51;;;;;;;;;;;;;;;3.02;100.00;95731.19;5125264;28;19942;-74
2023/11/09 06:10:17;;;;;;;;;;;;;;;3.01;100.00;95729.59;5125797;28;19934;-74
2023/11/09 06:12:43;;;;;;;;;;;;;;;3.03;100.00;95730.22;5126145;28;19952;-74
2023/11/09 06:15:09;;;;;;;;;;;;;;;3.03;100.00;95727.63;5125794;28;20215;-75
2023/11/09 06:17:38;;;;;;;;;;;;;;;3.05;100.00;95731.63;5125946;28;19936;-74
2023/11/09 06:20:10;;;;;;;;;;;;;;;3.06;100.00;95732.41;5125415;28;20120;-75
2023/11/09 06:22:36;;;;;;;;;;;;;;;3.05;100.00;95726.44;5124459;28;19944;-74
2023/11/09 06:25:02;;;;;;;;;;;;;;;3.05;100.00;95730.81;5125033;28;19934;-74
2023/11/09 06:27:28;;;;;;;;;;;;;;;3.05;100.00;95726.44;5125504;28;19948;-76
2023/11/09 06:29:55;;;;;;;;;;;;;;;3.07;100.00;95739.19;5125740;28;19962;-75
2023/11/09 06:32:22;;;;;;;;;;;;;;;3.07;100.00;95733.19;5124941;28;19942;-74
2023/11/09 06:34:48;;;;;;;;;;;;;;;3.07;100.00;95734.03;5124913;28;19941;-75
2023/11/09 06:37:14;;;;;;;;;;;;;;;3.05;100.00;95738.59;5125391;28;19943;-74
2023/11/09 06:39:46;;;;;;;;;;;;;;;3.07;100.00;95733.19;5125048;28;19947;-74
2023/11/09 06:42:12;;;;;;;;;;;;;;;3.09;100.00;95741.59;5125344;28;19949;-74
2023/11/09 06:44:38;;;;;;;;;;;;;;;3.10;100.00;95738.81;5124331;27;19957;-73
2023/11/09 06:47:04;;;;;;;;;;;;;;;3.15;100.00;95730.47;5124725;28;19942;-74
2023/11/09 06:49:30;;;;;;;;;;;;;;;3.17;100.00;95744.88;5123581;28;20360;-74
2023/11/09 06:51:58;;;;;;;;;;;;;;;3.20;100.00;95744.47;5124314;28;20343;-78
2023/11/09 06:54:24;;;;;;;;;;;;;;;3.21;100.00;95738.31;5124708;28;19943;-77
2023/11/09 06:56:50;;;;;;;;;;;;;;;3.27;100.00;95743.72;5123903;28;19946;-79
2023/11/09 06:59:16;;;;;;;;;;;;;;;3.30;100.00;95738.97;5124922;28;19940;-80
2023/11/09 07:01:43;;;;;;;;;;;;;;;3.35;100.00;95748.75;5124648;28;19940;-78
2023/11/09 07:04:09;;;;;;;;;;;;;;;3.38;100.00;95740.59;5125384;28;20174;-80
2023/11/09 07:06:35;;;;;;;;;;;;;;;3.41;100.00;95764.34;5124601;28;19942;-78
2023/11/09 07:09:01;;;;;;;;;;;;;;;3.44;100.00;95766.56;5124481;28;20154;-73
2023/11/09 07:11:26;;;;;;;;;;;;;;;3.48;100.00;95771.38;5125339;28;19933;-75
2023/11/09 07:13:52;;;;;;;;;;;;;;;3.50;100.00;95772.78;5123281;28;19944;-74
2023/11/09 07:16:18;;;;;;;;;;;;;;;3.52;100.00;95778.56;5124475;28;20193;-74
2023/11/09 07:18:45;;;;;;;;;;;;;;;3.54;100.00;95781.78;5124455;28;19939;-74
2023/11/09 07:21:12;;;;;;;;;;;;;;;3.58;100.00;95782.22;5124369;28;19959;-74
2023/11/09 07:23:37;;;;;;;;;;;;;;;3.60;100.00;95786.19;5124293;28;19944;-74
2023/11/09 07:26:04;;;;;;;;;;;;;;;3.64;100.00;95786.63;5124414;28;20246;-71
2023/11/09 07:28:31;;;;;;;;;;;;;;;3.70;100.00;95785.09;5124296;28;19950;-78
2023/11/09 07:31:00;;;;;;;;;;;;;;;3.75;100.00;95783.50;5124359;28;19943;-77
2023/11/09 07:33:26;;;;;;;;;;;;;;;3.81;100.00;95768.97;5125600;28;19934;-77
2023/11/09 07:35:52;;;;;;;;;;;;;;;3.89;100.00;95768.03;5128308;28;19943;-78
2023/11/09 07:38:19;;;;;;;;;;;;;;;3.96;100.00;95754.06;5128256;28;19941;-78
2023/11/09 07:40:46;;;;;;;;;;;;;;;4.04;100.00;95751.31;5128202;28;19942;-78
2023/11/09 07:43:12;;;;;;;;;;;;;;;4.11;100.00;95764.31;5128384;28;19929;-78
2023/11/09 07:45:38;;;;;;;;;;;;;;;4.22;100.00;95758.56;5128739;28;19957;-79
2023/11/09 07:48:04;;;;;;;;;;;;;;;4.30;100.00;95754.19;5128040;28;19941;-74
2023/11/09 07:50:31;;;;;;;;;;;;;;;4.36;100.00;95758.59;5127779;28;19968;-74
2023/11/09 07:52:56;;;;;;;;;;;;;;;4.38;100.00;95765.19;5127956;28;19941;-74
2023/11/09 07:55:22;;;;;;;;;;;;;;;4.42;100.00;95750.03;5128421;28;20010;-74
2023/11/09 07:57:51;;;;;;;;;;;;;;;4.46;100.00;95767.63;5127868;28;19934;-73
2023/11/09 08:00:17;;;;;;;;;;;;;;;4.50;100.00;95765.44;5128324;28;19938;-74
2023/11/09 08:02:43;;;;;;;;;;;;;;;4.55;100.00;95781.22;5127797;28;19968;-70
2023/11/09 08:05:14;;;;;;;;;;;;;;;4.59;100.00;95779.03;5127765;28;20244;-72
2023/11/09 08:07:40;;;;;;;;;;;;;;;4.94;100.00;95773.72;5127753;28;19934;-68
2023/11/09 08:10:06;;;;;;;;;;;;;;;5.56;100.00;95777.66;5127491;28;19952;-68
2023/11/09 08:12:33;;;;;;;;;;;;;;;6.02;100.00;95776.00;5127516;28;19995;-69
2023/11/09 08:14:59;;;;;;;;;;;;;;;5.99;100.00;95779.03;5127478;28;19948;-69
2023/11/09 08:17:26;;;;;;;;;;;;;;;5.82;100.00;95779.44;5128261;28;20209;-68
2023/11/09 08:19:52;;;;;;;;;;;;;;;5.79;100.00;95781.63;5127400;28;20102;-69
2023/11/09 08:22:19;;;;;;;;;;;;;;;5.67;100.00;95782.28;5127412;28;19940;-74
2023/11/09 08:24:45;;;;;;;;;;;;;;;5.57;100.00;95786.28;5127521;28;19937;-74
2023/11/09 08:27:12;;;;;;;;;;;;;;;5.48;100.00;95781.31;5127858;28;19946;-74
2023/11/09 08:29:38;;;;;;;;;;;;;;;5.45;100.00;95780.88;5127114;28;19950;-74
2023/11/09 08:32:05;;;;;;;;;;;;;;;5.42;100.00;95791.72;5127235;28;19939;-73
2023/11/09 08:34:31;;;;;;;;;;;;;;;5.41;100.00;95788.28;5127159;28;20128;-74
2023/11/09 08:36:57;;;;;;;;;;;;;;;5.46;100.00;95779.91;5127111;28;20009;-74
2023/11/09 08:39:23;;;;;;;;;;;;;;;5.50;100.00;95775.88;5127251;28;19939;-73
2023/11/09 08:41:49;;;;;;;;;;;;;;;5.55;100.00;95776.09;5127669;28;19937;-78
2023/11/09 08:44:15;;;;;;;;;;;;;;;5.62;100.00;95770.88;5126889;28;19950;-74
2023/11/09 08:46:41;;;;;;;;;;;;;;;5.69;100.00;95775.06;5125683;28;20017;-74
2023/11/09 08:49:08;;;;;;;;;;;;;;;5.79;100.00;95776.44;5126195;28;20019;-74
2023/11/09 08:51:34;;;;;;;;;;;;;;;5.88;100.00;95767.41;5126851;28;20228;-74
2023/11/09 08:54:01;;;;;;;;;;;;;;;5.99;100.00;95771.22;5126769;28;19938;-74
2023/11/09 08:56:28;;;;;;;;;;;;;;;6.08;100.00;95765.56;5126742;28;19938;-74
2023/11/09 08:58:53;;;;;;;;;;;;;;;6.20;100.00;95768.31;5126957;28;20116;-79
2023/11/09 09:01:19;;;;;;;;;;;;;;;6.35;100.00;95767.28;5125544;28;19932;-73
2023/11/09 09:03:46;;;;;;;;;;;;;;;6.47;100.00;95763.00;5126566;28;19942;-72
2023/11/09 09:06:13;;;;;;;;;;;;;;;6.58;100.00;95764.94;5126981;28;19940;-73
2023/11/09 09:08:39;;;;;;;;;;;;;;;6.68;100.00;95764.50;5127280;28;19956;-72
2023/11/09 09:11:05;;;;;;;;;;;;;;;6.75;100.00;95756.63;5126504;28;20122;-73
2023/11/09 09:13:31;;;;;;;;;;;;;;;6.78;100.00;95758.78;5126391;28;19933;-73
2023/11/09 09:15:57;;;;;;;;;;;;;;;6.78;100.00;95754.38;5126676;28;20154;-78
2023/11/09 09:18:24;;;;;;;;;;;;;;;6.80;100.00;95751.56;5126347;28;19942;-71
2023/11/09 09:20:50;;;;;;;;;;;;;;;6.78;100.00;95748.38;5127082;28;20118;-81
2023/11/09 09:23:22;;;;;;;;;;;;;;;6.79;100.00;95745.56;5126269;28;20228;-82
2023/11/09 09:25:48;;;;;;;;;;;;;;;6.81;100.00;95735.72;5126966;28;19938;-81
2023/11/09 09:28:14;;;;;;;;;;;;;;;6.84;100.00;95737.13;5125667;28;19952;-81
2023/11/09 09:30:40;;;;;;;;;;;;;;;6.86;100.00;95743.69;5126616;28;20024;-81
2023/11/09 09:33:10;;;;;;;;;;;;;;;6.89;100.00;95734.69;5126012;28;19966;-80
2023/11/09 09:35:36;;;;;;;;;;;;;;;6.93;100.00;95737.66;5126123;28;19936;-73
2023/11/09 09:38:02;;;;;;;;;;;;;;;6.95;100.00;95744.28;5126093;28;20002;-73
2023/11/09 09:40:29;;;;;;;;;;;;;;;7.00;100.00;95730.59;5125859;28;19933;-74
2023/11/09 09:42:56;;;;;;;;;;;;;;;7.03;100.00;95730.94;5126662;28;20117;-74
2023/11/09 09:45:30;;;;;;;;;;;;;;;7.10;100.00;95739.53;5125696;28;20239;-74
2023/11/09 09:47:59;;;;;;;;;;;;;;;7.19;100.00;95734.84;5126299;28;19943;-73
2023/11/09 09:50:26;;;;;;;;;;;;;;;7.27;100.00;95737.19;5125379;28;19962;-74
2023/11/09 09:52:56;;;;;;;;;;;;;;;7.39;100.00;95731.25;5126371;28;19943;-69
2023/11/09 09:55:24;;;;;;;;;;;;;;;7.51;100.00;95734.75;5124476;28;20106;-77
2023/11/09 09:57:59;;;;;;;;;;;;;;;7.63;100.00;95733.03;5124562;28;19958;-83
2023/11/09 10:00:28;;;;;;;;;;;;;;;7.73;100.00;95743.75;5126010;28;19934;-84
2023/11/09 10:02:55;;;;;;;;;;;;;;;7.78;100.00;95732.66;5124385;28;20147;-83
2023/11/09 10:05:21;;;;;;;;;;;;;;;8.01;100.00;95744.28;5125440;28;19940;-82
2023/11/09 10:07:57;;;;;;;;;;;;;;;8.37;100.00;95724.34;5125025;28;20123;-83
2023/11/09 10:10:25;;;;;;;;;;;;;;;8.44;100.00;95722.44;5125817;28;19955;-84
2023/11/09 10:12:51;;;;;;;;;;;;;;;8.43;100.00;95739.16;5124247;28;19937;-74
2023/11/09 10:15:17;;;;;;;;;;;;;;;8.38;100.00;95720.69;5125289;28;19933;-74
2023/11/09 10:17:43;;;;;;;;;;;;;;;8.33;100.00;95711.72;5125205;28;19942;-73
2023/11/09 10:20:14;;;;;;;;;;;;;;;8.31;100.00;95711.13;5125189;28;19937;-73
2023/11/09 10:22:40;;;;;;;;;;;;;;;8.31;100.00;95708.50;5125124;28;19962;-73
2023/11/09 10:25:11;;;;;;;;;;;;;;;8.33;100.00;95716.94;5125147;28;19975;-73
2023/11/09 10:27:37;;;;;;;;;;;;;;;8.38;100.00;95707.63;5124952;28;19946;-74
2023/11/09 10:30:04;;;;;;;;;;;;;;;8.43;100.00;95713.03;5124846;28;19954;-71
2023/11/09 10:32:33;;;;;;;;;;;;;;;8.49;100.00;95714.75;5125438;28;19936;-69
2023/11/09 10:35:01;;;;;;;;;;;;;;;8.52;100.00;95716.91;5124460;27;19951;-74
2023/11/09 10:37:29;;;;;;;;;;;;;;;8.58;100.00;95720.47;5125067;28;19946;-74
2023/11/09 10:39:57;;;;;;;;;;;;;;;8.60;100.00;95705.38;5123672;28;20260;-74
2023/11/09 10:42:24;;;;;;;;;;;;;;;8.63;100.00;95695.28;5124660;28;19935;-74
2023/11/09 10:44:55;;;;;;;;;;;;;;;8.74;100.00;95704.94;5124595;28;19960;-74
2023/11/09 10:47:24;;;;;;;;;;;;;;;8.88;100.00;95707.34;5125445;28;19947;-74
2023/11/09 10:49:53;;;;;;;;;;;;;;;9.01;100.00;95703.72;5124770;28;19968;-69
2023/11/09 10:52:21;;;;;;;;;;;;;;;9.13;100.00;95700.13;5124620;28;19952;-68
2023/11/09 10:54:51;;;;;;;;;;;;;;;9.24;100.00;95700.31;5124868;28;19940;-69
2023/11/09 10:57:18;;;;;;;;;;;;;;;9.29;100.00;95695.22;5123512;28;19940;-70
2023/11/09 10:59:48;;;;;;;;;;;;;;;9.35;100.00;95687.25;5124613;28;19947;-69
2023/11/09 11:02:27;;;;;;;;;;;;;;;9.45;100.00;95689.31;5124569;28;19945;-69
2023/11/09 11:04:55;;;;;;;;;;;;;;;9.49;100.00;95687.81;5125051;28;19938;-69
2023/11/09 11:07:27;;;;;;;;;;;;;;;9.50;100.00;95675.53;5124219;28;20105;-75
2023/11/09 11:09:56;;;;;;;;;;;;;;;9.48;100.00;95670.50;5128667;28;19973;-69
2023/11/09 11:12:23;;;;;;;;;;;;;;;9.45;100.00;95668.38;5129021;28;19936;-70
2023/11/09 11:14:51;;;;;;;;;;;;;;;9.48;100.00;95672.34;5129227;28;20208;-69
2023/11/09 11:17:24;;;;;;;;;;;;;;;9.52;100.00;95673.47;5129496;28;19937;-69
2023/11/09 11:19:53;;;;;;;;;;;;;;;9.60;100.00;95662.66;5127579;28;19941;-69
2023/11/09 11:22:39;;;;;;;;;;;;;;;9.68;100.00;95670.16;5128809;28;19938;-69
2023/11/09 11:25:18;;;;;;;;;;;;;;;9.75;100.00;95646.47;5127492;28;20120;-77
2023/11/09 11:27:46;;;;;;;;;;;;;;;9.80;100.00;95656.22;5128536;28;19942;-86
2023/11/09 11:30:13;;;;;;;;;;;;;;;9.82;100.00;95649.72;5127190;28;19958;-69
2023/11/09 11:32:39;;;;;;;;;;;;;;;9.87;100.00;95649.84;5128395;28;19942;-69
2023/11/09 11:35:06;;;;;;;;;;;;;;;9.89;100.00;95632.06;5128257;28;19949;-69
2023/11/09 11:37:33;;;;;;;;;;;;;;;9.98;100.00;95650.81;5128176;28;20225;-69
2023/11/09 11:40:09;;;;;;;;;;;;;;;10.04;100.00;95615.06;5128232;28;19934;-69
2023/11/09 11:42:37;;;;;;;;;;;;;;;10.12;100.00;95606.78;5128598;28;20123;-69
2023/11/09 11:45:06;;;;;;;;;;;;;;;10.18;100.00;95637.28;5127062;28;20153;-76
2023/11/09 11:47:34;;;;;;;;;;;;;;;10.24;100.00;95625.88;5128122;28;20098;-75
2023/11/09 11:50:01;;;;;;;;;;;;;;;10.37;100.00;95632.66;5127764;28;19965;-74
2023/11/09 11:52:30;;;;;;;;;;;;;;;10.59;100.00;95617.06;5128437;27;20125;-74
2023/11/09 11:55:05;;;;;;;;;;;;;;;10.85;100.00;95592.00;5127988;28;19936;-74
2023/11/09 11:57:34;;;;;;;;;;;;;;;11.01;100.00;95595.66;5128266;28;19942;-74
2023/11/09 12:00:03;;;;;;;;;;;;;;;11.15;100.00;95585.63;5128281;28;19944;-70
2023/11/09 12:02:29;;;;;;;;;;;;;;;11.22;100.00;95583.59;5126747;28;20230;-74
2023/11/09 12:04:56;;;;;;;;;;;;;;;11.15;100.00;95572.50;5127762;28;19952;-74
2023/11/09 12:07:23;;;;;;;;;;;;;;;11.04;100.00;95581.25;5127676;28;19950;-74
2023/11/09 12:09:49;;;;;;;;;;;;;;;10.93;100.00;95585.56;5127615;28;19962;-74
2023/11/09 12:12:15;;;;;;;;;;;;;;;10.82;100.00;95582.00;5127619;28;19937;-74
2023/11/09 12:14:43;;;;;;;;;;;;;;;10.72;100.00;95582.66;5127490;28;19942;-74
2023/11/09 12:17:09;;;;;;;;;;;;;;;10.65;100.00;95600.38;5127500;28;19951;-74
2023/11/09 12:19:36;;;;;;;;;;;;;;;10.62;100.00;95584.31;5127619;28;19948;-74
2023/11/09 12:22:02;;;;;;;;;;;;;;;10.55;100.00;95592.34;5126949;28;19943;-74
2023/11/09 12:24:28;;;;;;;;;;;;;;;10.52;100.00;95593.63;5128208;28;20224;-79
2023/11/09 12:27:02;;;;;;;;;;;;;;;10.53;100.00;95578.69;5127258;28;19947;-78
2023/11/09 12:29:30;;;;;;;;;;;;;;;10.57;100.00;95579.81;5127223;28;19968;-79
2023/11/09 12:31:55;;;;;;;;;;;;;;;10.62;100.00;95586.94;5127152;28;19945;-78
2023/11/09 12:34:22;;;;;;;;;;;;;;;10.63;100.00;95576.22;5127746;28;19934;-79
2023/11/09 12:36:51;;;;;;;;;;;;;;;10.61;100.00;95574.88;5127907;28;19951;-78
2023/11/09 12:39:29;;;;;;;;;;;;;;;10.60;100.00;95579.31;5127145;28;19931;-74
2023/11/09 12:41:56;;;;;;;;;;;;;;;10.63;100.00;95594.56;5127071;28;19937;-88
2023/11/09 12:44:24;;;;;;;;;;;;;;;10.67;100.00;95592.28;5127055;28;19950;-87
2023/11/09 12:46:53;;;;;;;;;;;;;;;10.74;100.00;95582.41;5108664;28;19952;-88
2023/11/09 12:49:26;;;;;;;;;;;;;;;10.79;100.00;95560.72;5127275;28;19971;-87
2023/11/09 12:51:53;;;;;;;;;;;;;;;10.79;100.00;95566.75;5126360;28;19998;-88
2023/11/09 12:54:22;;;;;;;;;;;;;;;10.77;100.00;95558.31;5126140;28;19959;-90